Time;durP1;ratioP1;P1;durP2;ratioP2;P2;SDS_P1;SDS_P2;PMS_P1;PMS_P2;Temp;Humidity;BMP_temperature;BMP_pressure;BME280_temperature;BME280_humidity;BME280_pressure;Samples;Min_cycle;Max_cycle;Signal;HPM_P1;HPM_P2
2022/05/29 00:01:56;;;;;;;9.95;7.00;;;10.50;99.90;;;;;;4975713;28;20088;-76
2022/05/29 00:04:25;;;;;;;9.05;6.90;;;10.60;99.90;;;;;;4991197;28;20527;-75
2022/05/29 00:06:56;;;;;;;8.40;7.45;;;10.60;99.90;;;;;;4992091;28;20125;-76
2022/05/29 00:09:31;;;;;;;10.73;6.93;;;10.60;99.90;;;;;;4992733;28;20085;-76
2022/05/29 00:12:01;;;;;;;11.40;8.25;;;10.70;99.90;;;;;;4971469;28;20672;-76
2022/05/29 00:14:30;;;;;;;8.05;7.25;;;10.70;99.90;;;;;;4975663;28;20046;-76
2022/05/29 00:16:57;;;;;;;7.35;6.63;;;10.70;99.90;;;;;;4993483;28;20343;-76
2022/05/29 00:19:26;;;;;;;12.30;7.15;;;10.80;99.90;;;;;;4976019;28;20095;-76
2022/05/29 00:21:54;;;;;;;7.90;7.10;;;10.80;99.90;;;;;;4992201;28;20442;-76
2022/05/29 00:24:22;;;;;;;10.57;7.43;;;10.80;99.90;;;;;;4958621;28;20100;-76
2022/05/29 00:26:49;;;;;;;9.00;6.55;;;10.80;99.90;;;;;;4975215;28;20486;-77
2022/05/29 00:29:18;;;;;;;9.27;6.75;;;10.80;99.90;;;;;;4991887;28;20054;-76
2022/05/29 00:31:45;;;;;;;8.75;7.20;;;10.80;99.90;;;;;;4991258;28;20046;-76
2022/05/29 00:34:13;;;;;;;9.00;7.20;;;10.80;99.90;;;;;;4958830;28;20104;-77
2022/05/29 00:36:44;;;;;;;22.40;8.13;;;10.90;99.90;;;;;;4990708;28;20121;-77
2022/05/29 00:39:14;;;;;;;17.40;7.70;;;10.90;99.90;;;;;;4972970;28;20052;-76
2022/05/29 00:41:43;;;;;;;17.88;7.60;;;10.90;99.90;;;;;;4991859;28;20105;-76
2022/05/29 00:44:19;;;;;;;23.10;9.15;;;10.90;99.90;;;;;;4974996;28;20137;-76
2022/05/29 00:46:48;;;;;;;21.73;8.27;;;10.90;99.90;;;;;;4992050;28;20042;-76
2022/05/29 00:49:18;;;;;;;14.57;7.63;;;10.90;99.90;;;;;;4990685;28;20090;-76
2022/05/29 00:51:54;;;;;;;13.63;7.82;;;10.80;99.90;;;;;;4974552;28;20108;-76
2022/05/29 00:54:23;;;;;;;11.25;7.32;;;10.80;99.90;;;;;;4990866;28;20061;-76
2022/05/29 00:56:52;;;;;;;10.48;6.93;;;10.70;99.90;;;;;;4990531;28;20079;-76
2022/05/29 00:59:30;;;;;;;8.52;6.85;;;10.70;99.90;;;;;;4944781;28;20042;-76
2022/05/29 01:01:59;;;;;;;7.95;7.07;;;10.70;99.90;;;;;;4990248;28;20053;-74
2022/05/29 01:04:27;;;;;;;8.48;7.45;;;10.60;99.90;;;;;;4991627;28;20515;-73
2022/05/29 01:06:55;;;;;;;8.05;6.97;;;10.60;99.90;;;;;;4972902;28;20431;-73
2022/05/29 01:09:22;;;;;;;7.80;6.88;;;10.60;99.90;;;;;;4991922;28;20507;-73
2022/05/29 01:12:07;;;;;;;7.78;6.50;;;10.50;99.90;;;;;;4973782;28;20054;-74
2022/05/29 01:14:51;;;;;;;7.88;6.43;;;10.50;99.90;;;;;;4972606;28;20592;-74
2022/05/29 01:17:31;;;;;;;7.03;6.32;;;10.40;99.90;;;;;;4972976;28;20491;-74
2022/05/29 01:20:31;;;;;;;12.02;6.40;;;10.40;99.90;;;;;;4972277;28;20161;-74
2022/05/29 01:23:29;;;;;;;7.07;6.40;;;10.40;99.90;;;;;;4990587;28;20046;-74
2022/05/29 01:26:39;;;;;;;7.68;6.85;;;10.50;99.90;;;;;;4973169;28;20142;-74
2022/05/29 01:29:09;;;;;;;10.48;6.28;;;10.50;99.90;;;;;;4991357;28;20153;-75
2022/05/29 01:31:47;;;;;;;9.73;6.22;;;10.60;99.90;;;;;;4991180;28;20809;-74
2022/05/29 01:34:38;;;;;;;6.97;6.38;;;10.60;99.90;;;;;;4957257;28;20046;-76
2022/05/29 01:37:15;;;;;;;7.18;6.15;;;10.70;99.90;;;;;;4990907;28;20076;-76
2022/05/29 01:40:00;;;;;;;7.53;6.07;;;10.70;99.90;;;;;;4972784;28;20068;-77
2022/05/29 01:42:33;;;;;;;8.93;6.47;;;10.80;99.90;;;;;;4972420;28;20081;-78
2022/05/29 01:45:06;;;;;;;;;;;10.80;99.90;;;;;;4991303;28;20482;-78
2022/05/29 01:47:42;;;;;;;8.15;5.93;;;10.90;99.90;;;;;;4991435;28;19926;-78
2022/05/29 01:50:19;;;;;;;7.50;6.32;;;10.90;99.90;;;;;;4974643;28;20053;-75
2022/05/29 01:52:52;;;;;;;7.55;6.35;;;11.00;99.90;;;;;;4993482;28;20058;-77
2022/05/29 01:55:24;;;;;;;11.98;6.03;;;11.00;99.90;;;;;;4994705;28;20503;-77
2022/05/29 01:57:59;;;;;;;11.43;5.75;;;11.00;99.90;;;;;;4976554;28;20058;-76
2022/05/29 02:00:28;;;;;;;6.72;6.13;;;11.10;99.90;;;;;;4993373;28;20478;-76
2022/05/29 02:03:05;;;;;;;6.15;5.57;;;11.10;99.90;;;;;;4993554;28;20058;-77
2022/05/29 02:05:39;;;;;;;6.18;5.45;;;11.10;99.90;;;;;;4994069;28;20901;-77
2022/05/29 02:08:14;;;;;;;6.20;5.60;;;11.10;99.90;;;;;;4976948;28;20087;-78
2022/05/29 02:10:47;;;;;;;6.93;5.78;;;11.20;99.90;;;;;;4992183;28;20096;-77
2022/05/29 02:13:23;;;;;;;7.80;6.47;;;11.20;99.90;;;;;;4976976;28;20152;-77
2022/05/29 02:15:58;;;;;;;8.32;7.22;;;11.20;99.90;;;;;;4994702;28;20136;-77
2022/05/29 02:18:34;;;;;;;7.80;7.10;;;11.30;99.90;;;;;;4993552;28;20046;-77
2022/05/29 02:21:07;;;;;;;8.30;7.50;;;11.30;99.90;;;;;;4994413;28;20042;-77
2022/05/29 02:23:39;;;;;;;7.43;6.72;;;11.30;99.90;;;;;;4993840;28;20054;-76
2022/05/29 02:26:10;;;;;;;7.65;6.13;;;11.40;99.90;;;;;;4976703;28;20042;-76
2022/05/29 02:28:42;;;;;;;6.43;5.88;;;11.40;99.90;;;;;;4976529;28;20073;-77
2022/05/29 02:31:20;;;;;;;6.13;5.53;;;11.50;99.90;;;;;;4994627;28;20054;-77
2022/05/29 02:33:57;;;;;;;8.02;5.70;;;11.50;99.90;;;;;;4994064;28;20108;-77
2022/05/29 02:36:36;;;;;;;8.02;5.88;;;11.60;99.90;;;;;;4976204;28;20518;-76
2022/05/29 02:39:22;;;;;;;7.55;6.50;;;11.60;99.90;;;;;;4993622;28;20177;-76
2022/05/29 02:42:05;;;;;;;6.78;6.18;;;11.60;99.90;;;;;;4993841;28;20109;-76
2022/05/29 02:44:38;;;;;;;;;;;11.70;99.90;;;;;;4994791;28;20054;-76
2022/05/29 02:47:25;;;;;;;5.93;5.38;;;11.70;99.90;;;;;;4975729;28;19933;-76
2022/05/29 02:50:17;;;;;;;6.40;5.78;;;11.80;99.90;;;;;;4994148;28;20139;-76
2022/05/29 02:52:45;;;;;;;6.35;5.72;;;11.80;99.90;;;;;;4976191;28;20462;-76
2022/05/29 02:55:12;;;;;;;10.90;5.68;;;11.80;99.90;;;;;;4991535;28;20035;-76
2022/05/29 02:57:41;;;;;;;6.18;5.55;;;11.90;99.90;;;;;;4993979;28;20077;-76
2022/05/29 03:00:12;;;;;;;10.63;6.38;;;11.90;99.90;;;;;;4992728;28;20088;-76
2022/05/29 03:02:56;;;;;;;5.80;5.25;;;12.00;99.90;;;;;;4993964;28;20072;-77
2022/05/29 03:05:29;;;;;;;7.28;5.32;;;12.00;99.90;;;;;;4992143;28;20462;-76
2022/05/29 03:08:25;;;;;;;6.88;4.95;;;12.10;99.90;;;;;;4959225;28;20563;-73
2022/05/29 03:11:02;;;;;;;5.78;5.22;;;12.10;99.90;;;;;;4994075;28;20062;-74
2022/05/29 03:13:42;;;;;;;7.28;5.78;;;12.10;99.90;;;;;;4959352;28;20503;-73
2022/05/29 03:16:20;;;;;;;7.05;5.60;;;12.20;99.90;;;;;;4959839;28;20062;-74
2022/05/29 03:19:01;;;;;;;8.63;5.60;;;12.20;99.90;;;;;;4992402;28;20425;-74
2022/05/29 03:21:47;;;;;;;6.00;5.40;;;12.30;99.90;;;;;;4993835;28;20058;-75
2022/05/29 03:24:25;;;;;;;9.35;5.60;;;12.30;99.90;;;;;;4957311;28;20046;-75
2022/05/29 03:26:59;;;;;;;6.20;5.60;;;12.40;99.90;;;;;;4975254;28;20053;-73
2022/05/29 03:29:34;;;;;;;6.53;5.50;;;12.40;99.90;;;;;;4976519;28;20141;-73
2022/05/29 03:32:02;;;;;;;12.48;6.53;;;12.60;99.90;;;;;;4993135;28;20141;-73
2022/05/29 03:34:31;;;;;;;8.90;7.07;;;12.70;99.90;;;;;;4992986;28;20061;-77
2022/05/29 03:36:59;;;;;;;8.70;7.05;;;12.70;99.90;;;;;;4993299;28;20085;-77
2022/05/29 03:39:26;;;;;;;7.80;6.88;;;12.70;99.90;;;;;;4993026;28;20044;-76
2022/05/29 03:41:55;;;;;;;11.88;7.22;;;12.60;99.90;;;;;;4990756;28;20054;-76
2022/05/29 03:44:25;;;;;;;9.23;7.40;;;12.50;99.90;;;;;;4993217;28;20065;-76
2022/05/29 03:46:52;;;;;;;10.52;7.80;;;12.50;99.90;;;;;;4975734;28;20054;-77
2022/05/29 03:49:21;;;;;;;9.85;7.78;;;12.50;99.90;;;;;;4992357;28;20039;-77
2022/05/29 03:51:51;;;;;;;12.07;8.43;;;12.60;99.90;;;;;;4992953;28;20054;-77
2022/05/29 03:54:20;;;;;;;10.65;7.38;;;12.50;99.90;;;;;;4993047;28;20435;-77
2022/05/29 03:56:47;;;;;;;8.45;7.47;;;12.50;99.90;;;;;;4974539;28;20054;-76
2022/05/29 03:59:14;;;;;;;11.75;7.95;;;12.50;99.90;;;;;;4994669;28;20046;-75
2022/05/29 04:01:42;;;;;;;12.50;8.55;;;12.50;99.90;;;;;;4963579;28;20050;-76
2022/05/29 04:04:09;;;;;;;10.38;7.53;;;12.60;99.90;;;;;;4992758;28;20140;-75
2022/05/29 04:06:40;;;;;;;9.57;7.88;;;12.60;99.90;;;;;;4991550;28;20517;-76
2022/05/29 04:12:07;;;;;;;7.35;6.55;;;12.60;99.90;;;;;;4976704;28;20069;-76
2022/05/29 04:14:39;;;;;;;9.18;7.38;;;12.50;99.90;;;;;;4992375;28;20054;-76
2022/05/29 04:17:07;;;;;;;15.77;8.80;;;12.60;99.90;;;;;;4992299;28;20125;-76
2022/05/29 04:19:35;;;;;;;11.60;8.60;;;12.70;99.90;;;;;;4958623;28;20100;-78
2022/05/29 04:22:07;;;;;;;12.90;7.80;;;12.80;99.90;;;;;;4974963;28;20065;-77
2022/05/29 04:24:36;;;;;;;;;;;12.90;99.90;;;;;;4975102;28;20491;-78
2022/05/29 04:27:06;;;;;;;12.05;8.15;;;13.00;99.90;;;;;;4973286;28;19971;-78
2022/05/29 04:29:33;;;;;;;9.57;7.10;;;13.10;99.90;;;;;;4956701;28;20518;-79
2022/05/29 04:34:45;;;;;;;9.20;6.78;;;13.30;99.90;;;;;;4990767;28;20427;-77
2022/05/29 04:37:13;;;;;;;6.35;5.75;;;13.60;99.90;;;;;;4991965;28;20410;-77
2022/05/29 04:39:42;;;;;;;6.43;5.63;;;13.70;99.90;;;;;;4991720;28;20050;-78
2022/05/29 04:42:13;;;;;;;7.13;5.53;;;13.80;99.90;;;;;;4974510;28;20137;-78
2022/05/29 04:44:41;;;;;;;7.28;5.40;;;14.00;99.90;;;;;;4973249;28;20141;-80
2022/05/29 04:47:09;;;;;;;5.75;5.22;;;14.00;99.90;;;;;;4991821;28;20048;-79
2022/05/29 04:49:39;;;;;;;6.22;5.63;;;14.10;99.90;;;;;;4992402;28;20513;-78
2022/05/29 04:52:08;;;;;;;7.93;5.93;;;14.20;99.90;;;;;;4973811;28;20050;-79
2022/05/29 04:54:37;;;;;;;7.00;5.63;;;14.30;99.90;;;;;;4973160;28;20058;-80
2022/05/29 04:57:08;;;;;;;6.28;5.43;;;14.30;99.90;;;;;;4992184;28;20082;-80
2022/05/29 04:59:35;;;;;;;5.95;5.43;;;14.40;99.90;;;;;;4990550;28;20097;-79
2022/05/29 05:02:04;;;;;;;6.60;6.00;;;14.60;99.90;;;;;;4982843;28;20038;-79
2022/05/29 05:04:32;;;;;;;8.55;5.78;;;14.60;99.90;;;;;;4974874;28;20061;-79
2022/05/29 05:07:00;;;;;;;11.05;6.10;;;14.60;99.90;;;;;;4960286;28;20042;-76
2022/05/29 05:09:32;;;;;;;6.93;6.05;;;14.70;99.90;;;;;;4986955;28;20050;-76
2022/05/29 05:12:00;;;;;;;9.82;6.57;;;14.80;99.90;;;;;;4973132;28;20054;-76
2022/05/29 05:14:29;;;;;;;5.82;5.32;;;14.80;99.90;;;;;;4991754;28;20467;-77
2022/05/29 05:16:57;;;;;;;8.40;6.47;;;14.80;99.90;;;;;;4957873;28;20046;-76
2022/05/29 05:19:24;;;;;;;11.25;7.90;;;14.80;99.90;;;;;;4973051;28;20097;-76
2022/05/29 05:21:52;;;;;;;7.80;6.15;;;14.80;99.90;;;;;;4991267;28;20136;-76
2022/05/29 05:24:20;;;;;;;5.55;5.13;;;14.80;99.90;;;;;;4988537;28;20101;-77
2022/05/29 05:26:47;;;;;;;7.63;5.63;;;14.70;99.90;;;;;;4989638;28;20388;-77
2022/05/29 05:29:15;;;;;;;8.07;6.15;;;14.70;99.90;;;;;;4989764;28;20121;-77
2022/05/29 05:31:44;;;;;;;6.70;6.03;;;14.90;99.90;;;;;;4974192;28;20050;-77
2022/05/29 05:34:11;;;;;;;7.68;6.10;;;15.20;99.90;;;;;;4989811;28;20054;-78
2022/05/29 05:36:38;;;;;;;7.00;6.30;;;15.60;99.90;;;;;;4991973;28;20068;-77
2022/05/29 05:39:06;;;;;;;6.97;6.25;;;15.90;99.90;;;;;;4989468;28;20053;-78
2022/05/29 05:41:33;;;;;;;6.25;5.63;;;16.30;99.90;;;;;;4972660;28;20065;-75
2022/05/29 05:44:00;;;;;;;6.55;5.95;;;16.70;99.90;;;;;;4991222;28;20458;-77
2022/05/29 05:46:28;;;;;;;13.10;5.85;;;16.90;99.90;;;;;;4971437;28;20052;-75
2022/05/29 05:48:57;;;;;;;9.10;4.53;;;17.00;99.90;;;;;;4955540;28;20139;-76
2022/05/29 05:51:25;;;;;;;5.47;4.90;;;17.10;99.90;;;;;;4991408;28;20141;-74
2022/05/29 05:53:53;;;;;;;5.57;5.18;;;17.10;99.90;;;;;;4991595;28;20093;-75
2022/05/29 05:56:21;;;;;;;6.07;5.40;;;17.00;99.90;;;;;;4988679;28;20077;-75
2022/05/29 05:58:49;;;;;;;9.65;5.55;;;17.00;99.90;;;;;;4983737;28;20073;-74
2022/05/29 06:01:18;;;;;;;6.75;6.18;;;16.90;99.90;;;;;;4989469;28;20042;-76
2022/05/29 06:03:46;;;;;;;7.40;6.70;;;17.00;99.90;;;;;;4991414;28;20069;-76
2022/05/29 06:06:15;;;;;;;5.40;4.97;;;17.10;99.90;;;;;;4970792;28;20050;-77
2022/05/29 06:08:43;;;;;;;6.40;5.60;;;17.50;99.90;;;;;;4991488;28;20050;-76
2022/05/29 06:11:10;;;;;;;5.75;5.03;;;18.00;99.90;;;;;;4975143;28;20057;-76
2022/05/29 06:13:38;;;;;;;6.32;4.55;;;18.50;99.90;;;;;;4989315;28;20176;-75
2022/05/29 06:16:06;;;;;;;7.03;4.43;;;18.60;99.90;;;;;;4991069;28;20162;-74
2022/05/29 06:18:34;;;;;;;3.42;3.22;;;18.60;99.90;;;;;;4991314;28;20105;-75
2022/05/29 06:21:04;;;;;;;3.72;3.42;;;18.40;99.90;;;;;;4990141;28;20061;-75
2022/05/29 06:23:34;;;;;;;7.78;5.97;;;18.40;99.90;;;;;;4956660;28;20047;-75
2022/05/29 06:26:03;;;;;;;4.95;4.55;;;18.50;99.90;;;;;;4992237;28;20038;-75
2022/05/29 06:28:30;;;;;;;4.93;4.45;;;18.30;99.90;;;;;;4967711;28;20073;-76
2022/05/29 06:30:57;;;;;;;5.78;5.28;;;18.10;99.90;;;;;;4991111;28;20047;-77
2022/05/29 06:33:28;;;;;;;5.90;4.40;;;17.90;99.90;;;;;;4969019;28;20054;-77
2022/05/29 06:35:55;;;;;;;4.70;4.40;;;17.80;99.90;;;;;;4974132;28;20062;-75
2022/05/29 06:38:23;;;;;;;4.82;4.43;;;17.70;99.90;;;;;;4989173;28;20043;-75
2022/05/29 06:40:52;;;;;;;5.35;4.85;;;17.60;99.90;;;;;;4960477;28;20129;-77
2022/05/29 06:43:20;;;;;;;5.47;5.05;;;17.60;99.90;;;;;;4979180;28;20105;-76
2022/05/29 06:45:47;;;;;;;6.78;5.60;;;17.40;99.90;;;;;;4991091;28;20136;-76
2022/05/29 06:48:14;;;;;;;6.78;5.88;;;17.40;99.90;;;;;;4975147;28;20050;-75
2022/05/29 06:50:42;;;;;;;7.07;6.07;;;17.30;99.90;;;;;;4976928;28;20062;-75
2022/05/29 06:53:09;;;;;;;6.22;5.70;;;17.30;99.90;;;;;;4993368;28;20053;-75
2022/05/29 06:55:37;;;;;;;5.95;5.32;;;17.20;99.90;;;;;;4977147;28;20141;-74
2022/05/29 06:58:06;;;;;;;8.20;5.40;;;17.20;99.90;;;;;;4977441;28;20053;-75
2022/05/29 07:08:58;;;;;;;5.03;4.53;;;17.80;99.90;;;;;;4991208;28;20054;-77
2022/05/29 07:11:30;;;;;;;5.55;5.05;;;17.90;99.90;;;;;;4995970;23;20050;-77
2022/05/29 07:14:00;;;;;;;5.38;4.40;;;18.00;99.90;;;;;;5008792;28;20054;-78
2022/05/29 07:16:27;;;;;;;5.07;4.68;;;18.60;99.90;;;;;;4989568;28;20092;-77
2022/05/29 07:18:54;;;;;;;5.18;4.68;;;18.80;99.90;;;;;;4992869;28;20049;-77
2022/05/29 07:21:23;;;;;;;5.45;5.05;;;19.10;99.90;;;;;;5004823;28;20053;-76
2022/05/29 07:23:50;;;;;;;7.07;5.40;;;19.50;99.90;;;;;;4990717;28;20046;-75
2022/05/29 07:26:21;;;;;;;6.70;5.53;;;19.90;99.90;;;;;;5009817;28;20046;-77
2022/05/29 07:28:49;;;;;;;10.90;5.43;;;20.20;99.90;;;;;;5007060;28;20050;-75
2022/05/29 07:31:18;;;;;;;6.00;5.10;;;20.80;99.40;;;;;;4984120;28;20046;-75
2022/05/29 07:33:45;;;;;;;5.60;4.78;;;21.30;94.70;;;;;;4973063;28;20086;-75
2022/05/29 07:36:13;;;;;;;6.40;5.40;;;22.10;92.60;;;;;;4978967;28;20050;-75
2022/05/29 07:38:42;;;;;;;6.15;5.57;;;22.80;85.80;;;;;;4990171;28;20046;-78
2022/05/29 07:43:53;;;;;;;10.52;7.93;;;23.20;79.80;;;;;;4990608;28;20096;-77
2022/05/29 07:46:22;;;;;;;3.63;3.30;;;23.20;75.80;;;;;;4992030;28;20065;-77
2022/05/29 07:48:50;;;;;;;4.15;3.60;;;23.20;73.80;;;;;;4987528;28;20055;-78
2022/05/29 07:51:18;;;;;;;3.70;3.40;;;23.30;74.50;;;;;;4972827;28;20059;-75
2022/05/29 07:53:45;;;;;;;5.82;3.58;;;23.40;72.50;;;;;;4987797;28;20108;-75
2022/05/29 07:56:16;;;;;;;2.63;1.63;;;23.80;71.80;;;;;;4983568;28;20138;-77
2022/05/29 07:58:44;;;;;;;2.95;2.75;;;24.00;66.20;;;;;;4989734;28;20057;-77
2022/05/29 08:01:16;;;;;;;2.45;2.35;;;24.60;62.80;;;;;;5001753;28;20498;-77
2022/05/29 08:03:45;;;;;;;3.03;1.90;;;24.80;61.70;;;;;;4992508;28;20089;-76
2022/05/29 08:06:12;;;;;;;2.70;2.22;;;25.50;61.30;;;;;;4993525;28;20042;-78
2022/05/29 08:08:41;;;;;;;3.67;2.53;;;26.10;60.40;;;;;;4991989;28;20125;-75
2022/05/29 08:11:08;;;;;;;4.47;4.05;;;26.70;58.20;;;;;;4991975;28;20058;-76
2022/05/29 08:13:37;;;;;;;4.05;2.58;;;27.10;56.80;;;;;;4985337;28;20598;-76
2022/05/29 08:16:06;;;;;;;5.18;2.63;;;27.30;56.30;;;;;;4977581;28;20100;-76
2022/05/29 08:18:33;;;;;;;3.22;2.58;;;27.10;57.00;;;;;;4991474;28;20046;-76
2022/05/29 08:21:03;;;;;;;2.28;2.10;;;27.20;55.90;;;;;;4982015;28;20546;-76
2022/05/29 08:23:31;;;;;;;2.85;2.58;;;27.40;54.80;;;;;;4985555;28;20061;-72
2022/05/29 08:31:29;;;;;;;2.03;1.58;;;26.90;53.60;;;;;;4979082;28;20058;-75
2022/05/29 08:33:57;;;;;;;2.10;1.95;;;27.10;52.80;;;;;;4975234;28;20051;-75
2022/05/29 08:36:27;;;;;;;2.58;2.38;;;27.50;53.30;;;;;;4974845;28;20101;-81
2022/05/29 08:38:56;;;;;;;3.17;3.00;;;27.90;52.60;;;;;;4973592;28;20047;-79
2022/05/29 08:41:42;;;;;;;3.38;3.08;;;28.40;52.20;;;;;;4973957;28;20085;-78
2022/05/29 08:44:15;;;;;;;3.05;2.85;;;28.70;52.20;;;;;;4987424;28;20050;-78
2022/05/29 08:46:47;;;;;;;3.00;2.80;;;28.20;52.90;;;;;;4991971;28;20054;-76
2022/05/29 08:49:18;;;;;;;3.13;2.92;;;27.20;53.90;;;;;;4974842;28;20137;-74
2022/05/29 08:52:14;;;;;;;3.00;2.80;;;26.10;55.10;;;;;;4971195;28;20123;-77
2022/05/29 08:54:52;;;;;;;2.90;2.72;;;25.10;56.10;;;;;;4986334;28;20108;-77
2022/05/29 08:57:46;;;;;;;7.55;3.13;;;24.20;57.90;;;;;;4989455;28;20051;-78
2022/05/29 09:00:21;;;;;;;3.40;3.10;;;23.60;59.90;;;;;;4969598;28;20584;-77
2022/05/29 09:03:02;;;;;;;5.47;3.00;;;23.30;60.30;;;;;;4987884;28;20049;-76
2022/05/29 09:05:37;;;;;;;3.53;2.97;;;23.60;61.20;;;;;;4989582;28;20054;-77
2022/05/29 09:08:12;;;;;;;4.65;4.25;;;23.70;59.70;;;;;;4944117;28;20081;-84
2022/05/29 09:10:43;;;;;;;3.20;3.00;;;24.50;60.80;;;;;;4985048;28;20512;-83
2022/05/29 09:13:17;;;;;;;2.95;2.75;;;24.60;58.50;;;;;;4992845;28;20097;-78
2022/05/29 09:16:00;;;;;;;5.57;3.30;;;24.40;59.10;;;;;;4992239;28;20104;-81
2022/05/29 09:18:52;;;;;;;2.95;2.70;;;24.40;59.80;;;;;;5006219;28;20062;-78
2022/05/29 09:21:27;;;;;;;2.15;2.05;;;25.30;58.40;;;;;;4990116;28;20565;-76
2022/05/29 09:24:03;;;;;;;3.25;2.70;;;25.50;55.90;;;;;;4988475;28;20046;-75
2022/05/29 09:26:40;;;;;;;3.22;2.92;;;25.70;56.80;;;;;;4990473;28;20136;-76
2022/05/29 09:29:10;;;;;;;3.22;3.03;;;26.50;55.60;;;;;;4978474;28;20069;-77
2022/05/29 09:31:40;;;;;;;3.15;2.53;;;27.20;55.70;;;;;;4982473;28;20153;-80
2022/05/29 09:34:07;;;;;;;2.47;1.98;;;27.50;53.80;;;;;;4987331;28;20069;-78
2022/05/29 09:36:50;;;;;;;8.50;2.22;;;27.70;51.00;;;;;;4989376;28;20058;-78
2022/05/29 09:39:28;;;;;;;3.00;2.50;;;27.50;51.50;;;;;;5003988;28;20054;-81
2022/05/29 09:42:05;;;;;;;3.13;1.90;;;27.10;54.00;;;;;;5003486;28;20093;-78
2022/05/29 09:44:34;;;;;;;3.35;3.05;;;28.00;51.50;;;;;;4971789;28;20515;-80
2022/05/29 09:49:45;;;;;;;3.17;2.97;;;28.70;50.70;;;;;;4986603;28;20078;-78
2022/05/29 09:52:21;;;;;;;2.67;2.47;;;29.00;49.60;;;;;;4974361;28;20600;-77
2022/05/29 09:54:55;;;;;;;3.17;2.70;;;28.60;50.80;;;;;;4978321;28;20065;-80
2022/05/29 09:57:26;;;;;;;2.67;2.47;;;27.80;51.20;;;;;;4984156;28;20403;-79
2022/05/29 10:00:02;;;;;;;2.33;2.13;;;26.90;53.10;;;;;;4977737;28;20109;-76
2022/05/29 10:02:39;;;;;;;3.97;2.25;;;25.90;53.40;;;;;;4983386;28;20301;-78
2022/05/29 10:05:21;;;;;;;2.80;2.60;;;25.10;55.00;;;;;;4985882;28;20124;-77
2022/05/29 10:07:48;;;;;;;3.65;3.22;;;24.40;56.90;;;;;;4979024;28;20043;-77
2022/05/29 10:10:34;;;;;;;2.95;2.72;;;23.80;59.30;;;;;;4986164;28;20168;-79
2022/05/29 10:13:03;;;;;;;2.78;2.30;;;23.40;59.30;;;;;;4983260;28;20059;-77
2022/05/29 10:15:48;;;;;;;4.20;2.53;;;23.20;59.60;;;;;;4985251;28;20046;-76
2022/05/29 10:18:34;;;;;;;2.53;2.33;;;23.50;59.90;;;;;;4978170;28;20097;-77
2022/05/29 10:21:15;;;;;;;3.90;2.60;;;24.90;58.90;;;;;;5007127;28;20050;-78
2022/05/29 10:23:50;;;;;;;2.27;2.00;;;26.70;56.00;;;;;;4999247;28;20080;-77
2022/05/29 10:26:33;;;;;;;4.35;2.97;;;26.70;54.90;;;;;;4974386;28;20763;-78
2022/05/29 10:29:03;;;;;;;2.80;2.60;;;26.50;53.80;;;;;;4989677;28;20080;-77
2022/05/29 10:31:37;;;;;;;4.75;4.15;;;27.20;55.50;;;;;;4979881;28;20124;-81
2022/05/29 10:34:08;;;;;;;2.55;2.20;;;28.20;53.00;;;;;;4986669;28;20142;-77
2022/05/29 10:36:38;;;;;;;12.60;3.07;;;29.10;52.20;;;;;;4990583;28;20053;-78
2022/05/29 10:39:10;;;;;;;8.30;7.38;;;29.80;51.30;;;;;;5006458;28;20046;-76
2022/05/29 10:41:42;;;;;;;4.22;3.08;;;28.90;49.50;;;;;;4990299;28;20391;-79
2022/05/29 10:44:12;;;;;;;4.32;3.55;;;27.70;51.40;;;;;;4990680;28;20054;-76
2022/05/29 10:46:46;;;;;;;3.40;3.20;;;26.20;53.70;;;;;;4993102;28;20050;-76
2022/05/29 10:49:26;;;;;;;3.95;2.70;;;24.80;56.20;;;;;;4980444;28;20472;-79
2022/05/29 10:52:21;;;;;;;15.88;4.25;;;23.70;58.20;;;;;;4974685;28;20389;-76
2022/05/29 10:55:23;;;;;;;4.70;2.80;;;22.90;61.30;;;;;;4986583;28;20461;-77
2022/05/29 10:58:45;;;;;;;3.20;2.42;;;22.20;62.60;;;;;;4983151;28;20050;-76
2022/05/29 11:04:53;;;;;;;3.17;2.05;;;22.10;61.60;;;;;;4987275;28;20529;-77
2022/05/29 11:07:36;;;;;;;4.68;2.10;;;21.80;61.90;;;;;;5003812;28;20470;-77
2022/05/29 11:10:31;;;;;;;2.08;1.98;;;22.90;62.60;;;;;;4990246;28;20061;-79
2022/05/29 11:13:20;;;;;;;2.53;2.00;;;24.40;57.30;;;;;;4982132;28;20085;-77
2022/05/29 11:16:06;;;;;;;2.25;1.90;;;25.70;55.90;;;;;;4980452;28;20089;-77
2022/05/29 11:19:11;;;;;;;3.05;2.58;;;27.40;54.00;;;;;;4988926;28;20042;-80
2022/05/29 11:22:23;;;;;;;3.92;2.30;;;28.80;51.80;;;;;;4990054;28;20514;-80
2022/05/29 11:25:24;;;;;;;2.10;2.00;;;28.40;51.30;;;;;;4980144;28;20050;-79
2022/05/29 11:28:18;;;;;;;3.08;2.20;;;28.20;50.80;;;;;;4995002;28;20042;-79
2022/05/29 11:31:06;;;;;;;4.57;2.25;;;28.00;50.40;;;;;;5000442;28;20138;-77
2022/05/29 11:33:54;;;;;;;3.33;1.92;;;27.60;52.10;;;;;;5001103;28;20100;-78
2022/05/29 11:36:42;;;;;;;7.18;2.40;;;26.50;52.50;;;;;;5014598;28;20612;-76
2022/05/29 11:39:32;;;;;;;8.88;2.05;;;25.40;54.50;;;;;;4999440;28;20038;-82
2022/05/29 11:42:10;;;;;;;2.15;1.83;;;24.70;56.50;;;;;;5002901;28;20070;-81
2022/05/29 11:44:44;;;;;;;10.30;3.33;;;24.80;56.20;;;;;;4982555;28;20117;-79
2022/05/29 11:53:18;;;;;;;2.60;2.40;;;24.00;57.60;;;;;;4992076;28;20047;-81
2022/05/29 11:55:49;;;;;;;4.25;3.72;;;24.90;58.10;;;;;;5008225;28;20054;-79
2022/05/29 11:58:22;;;;;;;2.55;2.30;;;26.60;54.70;;;;;;4990656;28;20418;-80
2022/05/29 12:00:57;;;;;;;2.17;1.98;;;28.00;51.90;;;;;;5005977;28;20050;-82
2022/05/29 12:03:43;;;;;;;2.22;2.00;;;28.70;50.60;;;;;;4990349;28;20042;-83
2022/05/29 12:06:28;;;;;;;5.28;2.05;;;28.70;51.00;;;;;;4995603;28;20056;-79
2022/05/29 12:09:02;;;;;;;1.85;1.75;;;28.60;49.90;;;;;;4986852;28;20487;-79
2022/05/29 12:11:42;;;;;;;3.83;2.30;;;28.10;51.10;;;;;;4991307;28;20051;-79
2022/05/29 12:14:17;;;;;;;7.55;2.40;;;27.80;52.10;;;;;;4971949;28;20089;-78
2022/05/29 12:16:53;;;;;;;2.13;1.92;;;27.60;50.70;;;;;;4983010;28;20562;-77
2022/05/29 12:19:24;;;;;;;5.53;2.13;;;27.00;51.40;;;;;;4980262;28;20506;-76
2022/05/29 12:21:56;;;;;;;5.78;4.72;;;26.30;52.70;;;;;;4987810;28;20058;-78
2022/05/29 12:24:26;;;;;;;;;;;26.20;53.40;;;;;;4988548;28;20073;-81
2022/05/29 12:27:03;;;;;;;3.63;2.85;;;26.30;53.10;;;;;;4990196;28;19925;-79
2022/05/29 12:29:35;;;;;;;3.10;2.35;;;27.00;52.70;;;;;;4985115;28;20134;-78
2022/05/29 12:32:11;;;;;;;4.30;2.75;;;28.70;52.70;;;;;;4984223;28;20050;-78
2022/05/29 12:34:47;;;;;;;4.60;2.55;;;30.30;49.80;;;;;;5001897;28;20070;-78
2022/05/29 12:38:04;;;;;;;4.35;2.50;;;30.60;47.90;;;;;;4987386;28;20069;-78
2022/05/29 12:40:56;;;;;;;6.80;3.17;;;31.00;46.10;;;;;;4987706;28;20062;-76
2022/05/29 12:44:02;;;;;;;3.92;2.83;;;30.70;46.60;;;;;;4972972;28;20058;-78
2022/05/29 12:46:53;;;;;;;2.97;2.70;;;31.30;46.70;;;;;;4987501;28;20141;-78
2022/05/29 12:49:56;;;;;;;3.80;2.85;;;31.30;46.00;;;;;;4989589;28;20061;-80
2022/05/29 12:52:30;;;;;;;3.72;2.75;;;30.60;45.70;;;;;;4990125;28;20046;-81
2022/05/29 12:55:45;;;;;;;3.03;2.70;;;29.90;46.70;;;;;;4971550;28;20046;-86
2022/05/29 12:58:48;;;;;;;3.13;2.78;;;29.70;47.60;;;;;;4980601;28;20230;-78
2022/05/29 13:01:48;;;;;;;4.72;2.67;;;30.20;46.20;;;;;;4988009;28;20056;-77
2022/05/29 13:05:08;;;;;;;3.10;2.80;;;30.70;45.50;;;;;;4974383;28;20050;-78
2022/05/29 13:08:13;;;;;;;7.78;3.03;;;31.40;44.30;;;;;;4987702;28;20513;-77
2022/05/29 13:10:44;;;;;;;4.63;3.15;;;32.10;44.10;;;;;;4985607;28;20515;-77
2022/05/29 13:13:19;;;;;;;3.17;2.92;;;32.50;43.90;;;;;;4986509;28;20572;-80
2022/05/29 13:15:48;;;;;;;4.47;2.70;;;32.70;42.50;;;;;;4987980;28;20718;-76
2022/05/29 13:21:15;;;;;;;3.50;3.22;;;32.60;42.20;;;;;;4983875;28;20610;-75
2022/05/29 13:23:47;;;;;;;2.80;2.53;;;31.90;42.00;;;;;;4986245;28;20049;-79
2022/05/29 13:26:31;;;;;;;;;;;31.20;44.40;;;;;;4984490;28;20050;-76
2022/05/29 13:29:08;;;;;;;2.95;2.50;;;31.70;43.80;;;;;;4971800;28;19980;-77
2022/05/29 13:32:18;;;;;;;3.60;3.10;;;32.00;42.60;;;;;;4985058;28;20061;-75
2022/05/29 13:34:47;;;;;;;4.45;3.40;;;32.50;42.00;;;;;;4984629;28;20132;-76
2022/05/29 13:37:39;;;;;;;4.30;3.03;;;32.60;42.00;;;;;;4989171;28;20050;-80
2022/05/29 13:40:08;;;;;;;4.60;2.88;;;32.60;41.90;;;;;;4989653;28;20533;-79
2022/05/29 13:42:41;;;;;;;4.80;2.70;;;32.40;42.20;;;;;;5011660;28;20392;-79
2022/05/29 13:45:58;;;;;;;3.00;2.80;;;32.30;41.90;;;;;;4998752;28;20414;-78
2022/05/29 13:48:29;;;;;;;5.30;3.03;;;32.30;41.70;;;;;;4993614;28;20095;-77
2022/05/29 13:51:04;;;;;;;3.35;3.05;;;32.10;42.50;;;;;;4993752;28;20117;-76
2022/05/29 13:53:50;;;;;;;3.88;3.47;;;32.10;41.80;;;;;;4991562;28;20062;-77
2022/05/29 13:56:20;;;;;;;3.85;3.30;;;31.80;43.30;;;;;;5018915;28;20057;-76
2022/05/29 14:04:55;;;;;;;3.15;2.70;;;30.70;43.40;;;;;;4995403;28;20426;-80
2022/05/29 14:07:31;;;;;;;3.03;2.42;;;30.50;43.20;;;;;;4994997;28;20056;-81
2022/05/29 14:10:31;;;;;;;3.55;2.58;;;30.30;43.90;;;;;;4996144;28;20116;-81
2022/05/29 14:13:31;;;;;;;4.60;2.60;;;29.50;44.40;;;;;;4996267;28;20045;-80